sensor_id;sensor_type;location;lat;lon;timestamp;temperature;humidity
11256;HTU21D;5685;52.384;13.420;2022-10-17T00:02:17;21.70;99.90
11256;HTU21D;5685;52.384;13.420;2022-10-17T00:05:20;21.70;99.90
11256;HTU21D;5685;52.384;13.420;2022-10-17T00:08:23;21.60;99.90
11256;HTU21D;5685;52.384;13.420;2022-10-17T00:11:25;21.70;99.90
11256;HTU21D;5685;52.384;13.420;2022-10-17T00:14:27;21.70;99.90
11256;HTU21D;5685;52.384;13.420;2022-10-17T00:17:30;21.60;99.90
11256;HTU21D;5685;52.384;13.420;2022-10-17T00:20:35;21.70;99.90
11256;HTU21D;5685;52.384;13.420;2022-10-17T00:23:37;21.60;99.90
11256;HTU21D;5685;52.384;13.420;2022-10-17T00:26:39;21.60;99.90
11256;HTU21D;5685;52.384;13.420;2022-10-17T00:29:41;21.60;99.90
11256;HTU21D;5685;52.384;13.420;2022-10-17T00:32:43;21.60;99.90
11256;HTU21D;5685;52.384;13.420;2022-10-17T00:35:47;21.60;99.90
11256;HTU21D;5685;52.384;13.420;2022-10-17T00:38:51;21.60;99.90
11256;HTU21D;5685;52.384;13.420;2022-10-17T00:41:55;21.60;99.90
11256;HTU21D;5685;52.384;13.420;2022-10-17T00:45:11;21.60;99.90
11256;HTU21D;5685;52.384;13.420;2022-10-17T00:48:16;21.60;99.90
11256;HTU21D;5685;52.384;13.420;2022-10-17T00:51:23;21.60;99.90
11256;HTU21D;5685;52.384;13.420;2022-10-17T00:54:31;21.60;99.90
11256;HTU21D;5685;52.384;13.420;2022-10-17T00:57:36;21.60;99.90
11256;HTU21D;5685;52.384;13.420;2022-10-17T01:00:38;21.60;99.90
11256;HTU21D;5685;52.384;13.420;2022-10-17T01:03:41;21.60;99.90
11256;HTU21D;5685;52.384;13.420;2022-10-17T01:06:45;21.60;99.90
11256;HTU21D;5685;52.384;13.420;2022-10-17T01:09:47;21.60;99.90
11256;HTU21D;5685;52.384;13.420;2022-10-17T01:13:03;21.60;99.90
11256;HTU21D;5685;52.384;13.420;2022-10-17T01:16:14;21.60;99.90
11256;HTU21D;5685;52.384;13.420;2022-10-17T01:19:38;21.60;99.90
11256;HTU21D;5685;52.384;13.420;2022-10-17T01:23:01;21.60;99.90
11256;HTU21D;5685;52.384;13.420;2022-10-17T01:26:23;21.60;99.90
11256;HTU21D;5685;52.384;13.420;2022-10-17T01:29:46;21.60;99.90
11256;HTU21D;5685;52.384;13.420;2022-10-17T01:33:05;21.60;99.90
11256;HTU21D;5685;52.384;13.420;2022-10-17T01:36:13;21.50;99.90
11256;HTU21D;5685;52.384;13.420;2022-10-17T01:39:25;21.50;99.90
11256;HTU21D;5685;52.384;13.420;2022-10-17T01:42:34;21.50;99.90
11256;HTU21D;5685;52.384;13.420;2022-10-17T01:45:42;21.50;99.90
11256;HTU21D;5685;52.384;13.420;2022-10-17T01:48:48;21.50;99.90
11256;HTU21D;5685;52.384;13.420;2022-10-17T01:51:55;21.50;99.90
11256;HTU21D;5685;52.384;13.420;2022-10-17T01:55:05;21.50;99.90
11256;HTU21D;5685;52.384;13.420;2022-10-17T01:58:12;21.50;99.90
11256;HTU21D;5685;52.384;13.420;2022-10-17T02:01:16;21.50;99.90
11256;HTU21D;5685;52.384;13.420;2022-10-17T02:04:22;21.50;99.90
11256;HTU21D;5685;52.384;13.420;2022-10-17T02:07:24;21.50;99.90
11256;HTU21D;5685;52.384;13.420;2022-10-17T02:10:32;21.50;99.90
11256;HTU21D;5685;52.384;13.420;2022-10-17T02:13:56;21.50;99.90
11256;HTU21D;5685;52.384;13.420;2022-10-17T02:17:18;21.50;99.90
11256;HTU21D;5685;52.384;13.420;2022-10-17T02:20:34;21.50;99.90
11256;HTU21D;5685;52.384;13.420;2022-10-17T02:23:46;21.50;99.90
11256;HTU21D;5685;52.384;13.420;2022-10-17T02:26:59;21.40;99.90
11256;HTU21D;5685;52.384;13.420;2022-10-17T02:30:09;21.40;99.90
11256;HTU21D;5685;52.384;13.420;2022-10-17T02:33:17;21.40;99.90
11256;HTU21D;5685;52.384;13.420;2022-10-17T02:36:25;21.40;99.90
11256;HTU21D;5685;52.384;13.420;2022-10-17T02:39:31;21.40;99.90
11256;HTU21D;5685;52.384;13.420;2022-10-17T02:42:34;21.40;99.90
11256;HTU21D;5685;52.384;13.420;2022-10-17T02:45:37;21.40;99.90
11256;HTU21D;5685;52.384;13.420;2022-10-17T02:48:43;21.40;99.90
11256;HTU21D;5685;52.384;13.420;2022-10-17T02:51:54;21.40;99.90
11256;HTU21D;5685;52.384;13.420;2022-10-17T02:55:02;21.40;99.90
11256;HTU21D;5685;52.384;13.420;2022-10-17T02:58:11;21.40;99.90
11256;HTU21D;5685;52.384;13.420;2022-10-17T03:01:16;21.40;99.90
11256;HTU21D;5685;52.384;13.420;2022-10-17T03:04:18;21.40;99.90
11256;HTU21D;5685;52.384;13.420;2022-10-17T03:07:22;21.40;99.90
11256;HTU21D;5685;52.384;13.420;2022-10-17T03:10:24;21.40;99.90
11256;HTU21D;5685;52.384;13.420;2022-10-17T03:13:26;21.40;99.90
11256;HTU21D;5685;52.384;13.420;2022-10-17T03:16:28;21.40;99.90
11256;HTU21D;5685;52.384;13.420;2022-10-17T03:19:30;21.40;99.90
11256;HTU21D;5685;52.384;13.420;2022-10-17T03:22:33;21.40;99.90
11256;HTU21D;5685;52.384;13.420;2022-10-17T03:25:36;21.40;99.90
11256;HTU21D;5685;52.384;13.420;2022-10-17T03:28:38;21.30;99.90
11256;HTU21D;5685;52.384;13.420;2022-10-17T03:31:40;21.30;99.90
11256;HTU21D;5685;52.384;13.420;2022-10-17T03:34:42;21.30;99.90
11256;HTU21D;5685;52.384;13.420;2022-10-17T03:37:46;21.30;99.90
11256;HTU21D;5685;52.384;13.420;2022-10-17T03:40:54;21.30;99.90
11256;HTU21D;5685;52.384;13.420;2022-10-17T03:43:56;21.30;99.90
11256;HTU21D;5685;52.384;13.420;2022-10-17T03:46:58;21.30;99.90
11256;HTU21D;5685;52.384;13.420;2022-10-17T03:50:01;21.30;99.90
11256;HTU21D;5685;52.384;13.420;2022-10-17T03:53:04;21.30;99.90
11256;HTU21D;5685;52.384;13.420;2022-10-17T03:56:11;21.30;99.90
11256;HTU21D;5685;52.384;13.420;2022-10-17T03:59:15;21.30;99.90
11256;HTU21D;5685;52.384;13.420;2022-10-17T04:02:17;21.30;99.90
11256;HTU21D;5685;52.384;13.420;2022-10-17T04:05:19;21.30;99.90
11256;HTU21D;5685;52.384;13.420;2022-10-17T04:08:23;21.30;99.90
11256;HTU21D;5685;52.384;13.420;2022-10-17T04:11:25;21.20;99.90
11256;HTU21D;5685;52.384;13.420;2022-10-17T04:14:27;21.20;99.90
11256;HTU21D;5685;52.384;13.420;2022-10-17T04:17:30;21.20;99.90
11256;HTU21D;5685;52.384;13.420;2022-10-17T04:20:33;21.20;99.90
11256;HTU21D;5685;52.384;13.420;2022-10-17T04:23:37;21.20;99.90
11256;HTU21D;5685;52.384;13.420;2022-10-17T04:26:40;21.20;99.90
11256;HTU21D;5685;52.384;13.420;2022-10-17T04:29:42;21.20;99.90
11256;HTU21D;5685;52.384;13.420;2022-10-17T04:32:44;21.20;99.90
11256;HTU21D;5685;52.384;13.420;2022-10-17T04:35:54;21.20;99.90
11256;HTU21D;5685;52.384;13.420;2022-10-17T04:39:00;21.20;99.90
11256;HTU21D;5685;52.384;13.420;2022-10-17T04:42:03;21.20;99.90
11256;HTU21D;5685;52.384;13.420;2022-10-17T04:45:06;21.20;99.90
11256;HTU21D;5685;52.384;13.420;2022-10-17T04:48:09;21.20;99.90
11256;HTU21D;5685;52.384;13.420;2022-10-17T04:51:13;21.20;99.90
11256;HTU21D;5685;52.384;13.420;2022-10-17T04:54:17;21.20;99.90
11256;HTU21D;5685;52.384;13.420;2022-10-17T04:57:20;21.20;99.90
11256;HTU21D;5685;52.384;13.420;2022-10-17T05:00:22;21.20;99.90
11256;HTU21D;5685;52.384;13.420;2022-10-17T05:03:24;21.20;99.90
11256;HTU21D;5685;52.384;13.420;2022-10-17T05:06:26;21.20;99.90
11256;HTU21D;5685;52.384;13.420;2022-10-17T05:09:30;21.20;99.90
11256;HTU21D;5685;52.384;13.420;2022-10-17T05:12:32;21.20;99.90
11256;HTU21D;5685;52.384;13.420;2022-10-17T05:15:35;21.20;99.90
11256;HTU21D;5685;52.384;13.420;2022-10-17T05:18:37;21.20;99.90
11256;HTU21D;5685;52.384;13.420;2022-10-17T05:21:40;21.20;99.90
11256;HTU21D;5685;52.384;13.420;2022-10-17T05:24:43;21.20;99.90
11256;HTU21D;5685;52.384;13.420;2022-10-17T05:27:46;21.20;99.90
11256;HTU21D;5685;52.384;13.420;2022-10-17T05:30:48;21.20;99.90
11256;HTU21D;5685;52.384;13.420;2022-10-17T05:33:50;21.20;99.90
11256;HTU21D;5685;52.384;13.420;2022-10-17T05:36:52;21.20;99.90
11256;HTU21D;5685;52.384;13.420;2022-10-17T05:39:56;21.20;99.90
11256;HTU21D;5685;52.384;13.420;2022-10-17T05:42:59;21.20;99.90
11256;HTU21D;5685;52.384;13.420;2022-10-17T05:46:03;21.20;99.90
11256;HTU21D;5685;52.384;13.420;2022-10-17T05:49:08;21.20;99.90
11256;HTU21D;5685;52.384;13.420;2022-10-17T05:52:10;21.20;99.90
11256;HTU21D;5685;52.384;13.420;2022-10-17T05:55:14;21.20;99.90
11256;HTU21D;5685;52.384;13.420;2022-10-17T05:58:16;21.20;99.90
11256;HTU21D;5685;52.384;13.420;2022-10-17T06:01:18;21.20;99.90
11256;HTU21D;5685;52.384;13.420;2022-10-17T06:04:20;21.10;99.90
11256;HTU21D;5685;52.384;13.420;2022-10-17T06:07:22;21.10;99.90
11256;HTU21D;5685;52.384;13.420;2022-10-17T06:10:26;21.20;99.90
11256;HTU21D;5685;52.384;13.420;2022-10-17T06:13:29;21.20;99.90
11256;HTU21D;5685;52.384;13.420;2022-10-17T06:16:31;21.20;99.90
11256;HTU21D;5685;52.384;13.420;2022-10-17T06:19:33;21.10;99.90
11256;HTU21D;5685;52.384;13.420;2022-10-17T06:22:36;21.10;99.90
11256;HTU21D;5685;52.384;13.420;2022-10-17T06:25:39;21.10;99.90
11256;HTU21D;5685;52.384;13.420;2022-10-17T06:28:42;21.10;99.90
11256;HTU21D;5685;52.384;13.420;2022-10-17T06:31:44;21.10;99.90
11256;HTU21D;5685;52.384;13.420;2022-10-17T06:34:46;21.10;99.90
11256;HTU21D;5685;52.384;13.420;2022-10-17T06:37:48;21.10;99.90
11256;HTU21D;5685;52.384;13.420;2022-10-17T06:40:52;21.10;99.90
11256;HTU21D;5685;52.384;13.420;2022-10-17T06:43:57;21.10;99.90
11256;HTU21D;5685;52.384;13.420;2022-10-17T06:47:00;21.10;99.90
11256;HTU21D;5685;52.384;13.420;2022-10-17T06:50:02;21.10;99.90
11256;HTU21D;5685;52.384;13.420;2022-10-17T06:53:04;21.10;99.90
11256;HTU21D;5685;52.384;13.420;2022-10-17T06:56:09;21.10;99.90
11256;HTU21D;5685;52.384;13.420;2022-10-17T06:59:11;21.10;99.90
11256;HTU21D;5685;52.384;13.420;2022-10-17T07:02:15;21.10;99.90
11256;HTU21D;5685;52.384;13.420;2022-10-17T07:05:17;21.10;99.90
11256;HTU21D;5685;52.384;13.420;2022-10-17T07:08:20;21.10;99.90
11256;HTU21D;5685;52.384;13.420;2022-10-17T07:11:24;21.10;99.90
11256;HTU21D;5685;52.384;13.420;2022-10-17T07:14:26;21.10;99.90
11256;HTU21D;5685;52.384;13.420;2022-10-17T07:17:31;21.10;99.90
11256;HTU21D;5685;52.384;13.420;2022-10-17T07:20:33;21.10;99.90
11256;HTU21D;5685;52.384;13.420;2022-10-17T07:23:36;21.10;99.90
11256;HTU21D;5685;52.384;13.420;2022-10-17T07:26:40;21.10;99.90
11256;HTU21D;5685;52.384;13.420;2022-10-17T07:29:42;21.10;99.90
11256;HTU21D;5685;52.384;13.420;2022-10-17T07:32:45;21.10;99.90
11256;HTU21D;5685;52.384;13.420;2022-10-17T07:35:47;21.10;99.90
11256;HTU21D;5685;52.384;13.420;2022-10-17T07:38:51;21.10;99.90
11256;HTU21D;5685;52.384;13.420;2022-10-17T07:41:55;21.10;99.90
11256;HTU21D;5685;52.384;13.420;2022-10-17T07:44:58;21.10;99.90
11256;HTU21D;5685;52.384;13.420;2022-10-17T07:48:00;21.10;99.90
11256;HTU21D;5685;52.384;13.420;2022-10-17T07:51:03;21.10;99.90
11256;HTU21D;5685;52.384;13.420;2022-10-17T07:54:07;21.10;99.90
11256;HTU21D;5685;52.384;13.420;2022-10-17T07:57:11;21.10;99.90
11256;HTU21D;5685;52.384;13.420;2022-10-17T08:00:13;21.10;99.90
11256;HTU21D;5685;52.384;13.420;2022-10-17T08:03:15;21.10;99.90
11256;HTU21D;5685;52.384;13.420;2022-10-17T08:06:17;21.10;99.90
11256;HTU21D;5685;52.384;13.420;2022-10-17T08:09:20;21.10;99.90
11256;HTU21D;5685;52.384;13.420;2022-10-17T08:12:23;21.10;99.90
11256;HTU21D;5685;52.384;13.420;2022-10-17T08:15:25;21.10;99.90
11256;HTU21D;5685;52.384;13.420;2022-10-17T08:18:28;21.10;99.90
11256;HTU21D;5685;52.384;13.420;2022-10-17T08:21:30;21.10;99.90
11256;HTU21D;5685;52.384;13.420;2022-10-17T08:24:32;21.10;99.90
11256;HTU21D;5685;52.384;13.420;2022-10-17T08:27:36;21.10;99.90
11256;HTU21D;5685;52.384;13.420;2022-10-17T08:30:38;21.10;99.90
11256;HTU21D;5685;52.384;13.420;2022-10-17T08:33:41;21.10;99.90
11256;HTU21D;5685;52.384;13.420;2022-10-17T08:36:43;21.10;99.90
11256;HTU21D;5685;52.384;13.420;2022-10-17T08:39:45;21.10;99.90
11256;HTU21D;5685;52.384;13.420;2022-10-17T08:43:04;21.10;99.90
11256;HTU21D;5685;52.384;13.420;2022-10-17T08:46:17;21.10;99.90
11256;HTU21D;5685;52.384;13.420;2022-10-17T08:49:26;21.10;99.90
11256;HTU21D;5685;52.384;13.420;2022-10-17T08:52:39;21.10;99.90
11256;HTU21D;5685;52.384;13.420;2022-10-17T08:55:46;21.10;99.90
11256;HTU21D;5685;52.384;13.420;2022-10-17T08:58:50;21.10;99.90
11256;HTU21D;5685;52.384;13.420;2022-10-17T09:01:59;21.10;99.90
11256;HTU21D;5685;52.384;13.420;2022-10-17T09:05:23;21.10;99.90
11256;HTU21D;5685;52.384;13.420;2022-10-17T09:08:41;21.10;99.90
11256;HTU21D;5685;52.384;13.420;2022-10-17T09:11:57;21.10;99.90
11256;HTU21D;5685;52.384;13.420;2022-10-17T09:15:28;21.10;99.90
11256;HTU21D;5685;52.384;13.420;2022-10-17T09:18:37;21.10;99.90
11256;HTU21D;5685;52.384;13.420;2022-10-17T09:21:44;21.10;99.90
11256;HTU21D;5685;52.384;13.420;2022-10-17T09:24:52;21.10;99.90
11256;HTU21D;5685;52.384;13.420;2022-10-17T09:28:03;21.10;99.90
11256;HTU21D;5685;52.384;13.420;2022-10-17T09:31:13;21.10;99.90
11256;HTU21D;5685;52.384;13.420;2022-10-17T09:34:20;21.10;99.90
11256;HTU21D;5685;52.384;13.420;2022-10-17T09:37:28;21.10;99.90
11256;HTU21D;5685;52.384;13.420;2022-10-17T09:40:33;21.10;99.90
11256;HTU21D;5685;52.384;13.420;2022-10-17T09:43:38;21.10;99.90
11256;HTU21D;5685;52.384;13.420;2022-10-17T09:46:50;21.10;99.90
11256;HTU21D;5685;52.384;13.420;2022-10-17T09:49:57;21.10;99.90
11256;HTU21D;5685;52.384;13.420;2022-10-17T09:53:02;21.10;99.90
11256;HTU21D;5685;52.384;13.420;2022-10-17T09:56:15;21.10;99.90
11256;HTU21D;5685;52.384;13.420;2022-10-17T09:59:30;21.10;99.90
11256;HTU21D;5685;52.384;13.420;2022-10-17T10:02:34;21.10;99.90
11256;HTU21D;5685;52.384;13.420;2022-10-17T10:05:41;21.20;99.90
11256;HTU21D;5685;52.384;13.420;2022-10-17T10:08:49;21.20;99.90
11256;HTU21D;5685;52.384;13.420;2022-10-17T10:11:54;21.20;99.90
11256;HTU21D;5685;52.384;13.420;2022-10-17T10:14:58;21.20;99.90
11256;HTU21D;5685;52.384;13.420;2022-10-17T10:18:02;21.20;99.90
11256;HTU21D;5685;52.384;13.420;2022-10-17T10:21:08;21.20;99.90
11256;HTU21D;5685;52.384;13.420;2022-10-17T10:24:12;21.20;99.90
11256;HTU21D;5685;52.384;13.420;2022-10-17T10:27:16;21.20;99.90
11256;HTU21D;5685;52.384;13.420;2022-10-17T10:30:23;21.20;99.90
11256;HTU21D;5685;52.384;13.420;2022-10-17T10:33:29;21.20;99.90
11256;HTU21D;5685;52.384;13.420;2022-10-17T10:36:53;21.20;99.90
11256;HTU21D;5685;52.384;13.420;2022-10-17T10:40:00;21.20;99.90
11256;HTU21D;5685;52.384;13.420;2022-10-17T10:43:05;21.20;99.90
11256;HTU21D;5685;52.384;13.420;2022-10-17T10:46:17;21.20;99.90
11256;HTU21D;5685;52.384;13.420;2022-10-17T10:49:31;21.20;99.90
11256;HTU21D;5685;52.384;13.420;2022-10-17T10:52:39;21.20;99.90
11256;HTU21D;5685;52.384;13.420;2022-10-17T10:55:46;21.20;99.90
11256;HTU21D;5685;52.384;13.420;2022-10-17T10:58:54;21.30;99.90
11256;HTU21D;5685;52.384;13.420;2022-10-17T11:02:02;21.30;99.90
11256;HTU21D;5685;52.384;13.420;2022-10-17T11:05:13;21.20;99.90
11256;HTU21D;5685;52.384;13.420;2022-10-17T11:08:25;21.30;99.90
11256;HTU21D;5685;52.384;13.420;2022-10-17T11:11:34;21.30;99.90
11256;HTU21D;5685;52.384;13.420;2022-10-17T11:14:43;21.30;99.90
11256;HTU21D;5685;52.384;13.420;2022-10-17T11:17:54;21.30;99.90
11256;HTU21D;5685;52.384;13.420;2022-10-17T11:21:03;21.30;99.90
11256;HTU21D;5685;52.384;13.420;2022-10-17T11:24:15;21.30;99.90
11256;HTU21D;5685;52.384;13.420;2022-10-17T11:27:22;21.30;99.90
11256;HTU21D;5685;52.384;13.420;2022-10-17T11:30:29;21.30;99.90
11256;HTU21D;5685;52.384;13.420;2022-10-17T11:33:45;21.30;99.90
11256;HTU21D;5685;52.384;13.420;2022-10-17T11:36:55;21.30;99.90
11256;HTU21D;5685;52.384;13.420;2022-10-17T11:40:02;21.40;99.90
11256;HTU21D;5685;52.384;13.420;2022-10-17T11:43:12;21.30;99.90
11256;HTU21D;5685;52.384;13.420;2022-10-17T11:46:20;21.40;99.90
11256;HTU21D;5685;52.384;13.420;2022-10-17T11:49:27;21.30;99.90
11256;HTU21D;5685;52.384;13.420;2022-10-17T11:52:38;21.40;99.90
11256;HTU21D;5685;52.384;13.420;2022-10-17T11:55:43;21.40;99.90
11256;HTU21D;5685;52.384;13.420;2022-10-17T11:58:52;21.40;99.90
11256;HTU21D;5685;52.384;13.420;2022-10-17T12:02:02;21.40;99.90
11256;HTU21D;5685;52.384;13.420;2022-10-17T12:05:17;21.40;99.90
11256;HTU21D;5685;52.384;13.420;2022-10-17T12:08:29;21.40;99.90
11256;HTU21D;5685;52.384;13.420;2022-10-17T12:11:46;21.40;99.90
11256;HTU21D;5685;52.384;13.420;2022-10-17T12:14:53;21.40;99.90
11256;HTU21D;5685;52.384;13.420;2022-10-17T12:17:57;21.40;99.90
11256;HTU21D;5685;52.384;13.420;2022-10-17T12:21:02;21.50;99.90
11256;HTU21D;5685;52.384;13.420;2022-10-17T12:24:27;21.50;99.90
11256;HTU21D;5685;52.384;13.420;2022-10-17T12:27:39;21.40;99.90
11256;HTU21D;5685;52.384;13.420;2022-10-17T12:30:58;21.50;99.90
11256;HTU21D;5685;52.384;13.420;2022-10-17T12:34:03;21.50;99.90
11256;HTU21D;5685;52.384;13.420;2022-10-17T12:37:09;21.50;99.90
11256;HTU21D;5685;52.384;13.420;2022-10-17T12:44:34;21.50;99.90
11256;HTU21D;5685;52.384;13.420;2022-10-17T12:47:37;21.60;99.90
11256;HTU21D;5685;52.384;13.420;2022-10-17T12:51:03;21.60;99.90
11256;HTU21D;5685;52.384;13.420;2022-10-17T12:54:10;21.60;99.90
11256;HTU21D;5685;52.384;13.420;2022-10-17T12:57:20;21.60;99.90
11256;HTU21D;5685;52.384;13.420;2022-10-17T13:00:30;21.60;99.90
11256;HTU21D;5685;52.384;13.420;2022-10-17T13:03:42;21.60;99.90
11256;HTU21D;5685;52.384;13.420;2022-10-17T13:06:46;21.60;99.90
11256;HTU21D;5685;52.384;13.420;2022-10-17T13:09:49;21.60;99.90
11256;HTU21D;5685;52.384;13.420;2022-10-17T13:13:09;21.70;99.90
11256;HTU21D;5685;52.384;13.420;2022-10-17T13:16:28;21.70;99.90
11256;HTU21D;5685;52.384;13.420;2022-10-17T13:19:40;21.70;99.90
11256;HTU21D;5685;52.384;13.420;2022-10-17T13:22:44;21.70;99.90
11256;HTU21D;5685;52.384;13.420;2022-10-17T13:25:46;21.70;99.90
11256;HTU21D;5685;52.384;13.420;2022-10-17T13:29:02;21.70;99.90
11256;HTU21D;5685;52.384;13.420;2022-10-17T13:32:05;21.70;99.90
11256;HTU21D;5685;52.384;13.420;2022-10-17T13:35:10;21.70;99.90
11256;HTU21D;5685;52.384;13.420;2022-10-17T13:38:14;21.70;99.90
11256;HTU21D;5685;52.384;13.420;2022-10-17T13:41:21;21.70;99.90
11256;HTU21D;5685;52.384;13.420;2022-10-17T13:44:32;21.70;99.90
11256;HTU21D;5685;52.384;13.420;2022-10-17T13:47:36;21.80;99.90
11256;HTU21D;5685;52.384;13.420;2022-10-17T13:50:41;21.80;99.90
11256;HTU21D;5685;52.384;13.420;2022-10-17T13:53:43;21.80;99.90
11256;HTU21D;5685;52.384;13.420;2022-10-17T13:56:45;21.80;99.90
11256;HTU21D;5685;52.384;13.420;2022-10-17T13:59:51;21.80;99.90
11256;HTU21D;5685;52.384;13.420;2022-10-17T14:02:54;21.80;99.90
11256;HTU21D;5685;52.384;13.420;2022-10-17T14:06:22;21.80;99.90
11256;HTU21D;5685;52.384;13.420;2022-10-17T14:09:26;21.80;99.90
11256;HTU21D;5685;52.384;13.420;2022-10-17T14:12:29;21.80;99.90
11256;HTU21D;5685;52.384;13.420;2022-10-17T14:15:33;21.80;99.90
11256;HTU21D;5685;52.384;13.420;2022-10-17T14:18:36;21.90;99.90
11256;HTU21D;5685;52.384;13.420;2022-10-17T14:21:41;21.90;99.90
11256;HTU21D;5685;52.384;13.420;2022-10-17T14:24:49;21.90;99.90
11256;HTU21D;5685;52.384;13.420;2022-10-17T14:27:54;21.90;99.90
11256;HTU21D;5685;52.384;13.420;2022-10-17T14:31:19;21.90;99.90
11256;HTU21D;5685;52.384;13.420;2022-10-17T14:34:40;21.90;99.90
11256;HTU21D;5685;52.384;13.420;2022-10-17T14:37:45;21.90;99.90
11256;HTU21D;5685;52.384;13.420;2022-10-17T14:40:50;22.00;99.90
11256;HTU21D;5685;52.384;13.420;2022-10-17T14:43:55;22.00;99.90
11256;HTU21D;5685;52.384;13.420;2022-10-17T14:46:59;21.90;99.90
11256;HTU21D;5685;52.384;13.420;2022-10-17T14:50:05;22.00;99.90
11256;HTU21D;5685;52.384;13.420;2022-10-17T14:53:20;22.00;99.90
11256;HTU21D;5685;52.384;13.420;2022-10-17T14:56:23;22.00;99.90
11256;HTU21D;5685;52.384;13.420;2022-10-17T14:59:27;22.00;99.90
11256;HTU21D;5685;52.384;13.420;2022-10-17T15:02:29;22.00;99.90
11256;HTU21D;5685;52.384;13.420;2022-10-17T15:05:31;22.00;99.90
11256;HTU21D;5685;52.384;13.420;2022-10-17T15:08:36;22.00;99.90
11256;HTU21D;5685;52.384;13.420;2022-10-17T15:11:39;22.10;99.90
11256;HTU21D;5685;52.384;13.420;2022-10-17T15:14:41;22.10;99.90
11256;HTU21D;5685;52.384;13.420;2022-10-17T15:17:43;22.10;99.90
11256;HTU21D;5685;52.384;13.420;2022-10-17T15:20:46;22.10;99.90
11256;HTU21D;5685;52.384;13.420;2022-10-17T15:23:50;22.10;99.90
11256;HTU21D;5685;52.384;13.420;2022-10-17T15:26:52;22.10;99.90
11256;HTU21D;5685;52.384;13.420;2022-10-17T15:29:56;22.10;99.90
11256;HTU21D;5685;52.384;13.420;2022-10-17T15:32:59;22.10;99.90
11256;HTU21D;5685;52.384;13.420;2022-10-17T15:36:01;22.10;99.90
11256;HTU21D;5685;52.384;13.420;2022-10-17T15:39:05;22.10;99.90
11256;HTU21D;5685;52.384;13.420;2022-10-17T15:42:08;22.10;99.90
11256;HTU21D;5685;52.384;13.420;2022-10-17T15:45:14;22.10;99.90
11256;HTU21D;5685;52.384;13.420;2022-10-17T15:48:21;22.20;99.90
11256;HTU21D;5685;52.384;13.420;2022-10-17T15:51:29;22.10;99.90
11256;HTU21D;5685;52.384;13.420;2022-10-17T15:54:32;22.20;99.90
11256;HTU21D;5685;52.384;13.420;2022-10-17T15:57:36;22.20;99.90
11256;HTU21D;5685;52.384;13.420;2022-10-17T16:00:39;22.20;99.90
11256;HTU21D;5685;52.384;13.420;2022-10-17T16:03:41;22.20;99.90
11256;HTU21D;5685;52.384;13.420;2022-10-17T16:06:46;22.20;99.90
11256;HTU21D;5685;52.384;13.420;2022-10-17T16:09:50;22.20;99.90
11256;HTU21D;5685;52.384;13.420;2022-10-17T16:12:52;22.20;99.90
11256;HTU21D;5685;52.384;13.420;2022-10-17T16:15:54;22.20;99.90
11256;HTU21D;5685;52.384;13.420;2022-10-17T16:18:57;22.20;99.90
11256;HTU21D;5685;52.384;13.420;2022-10-17T16:22:00;22.20;99.90
11256;HTU21D;5685;52.384;13.420;2022-10-17T16:25:07;22.20;99.90
11256;HTU21D;5685;52.384;13.420;2022-10-17T16:28:18;22.20;99.90
11256;HTU21D;5685;52.384;13.420;2022-10-17T16:31:23;22.20;99.90
11256;HTU21D;5685;52.384;13.420;2022-10-17T16:34:28;22.20;99.90
11256;HTU21D;5685;52.384;13.420;2022-10-17T16:37:31;22.20;99.90
11256;HTU21D;5685;52.384;13.420;2022-10-17T16:40:37;22.30;99.90
11256;HTU21D;5685;52.384;13.420;2022-10-17T16:43:40;22.30;99.90
11256;HTU21D;5685;52.384;13.420;2022-10-17T16:46:42;22.30;99.90
11256;HTU21D;5685;52.384;13.420;2022-10-17T16:49:45;22.30;99.90
11256;HTU21D;5685;52.384;13.420;2022-10-17T16:52:47;22.30;99.90
11256;HTU21D;5685;52.384;13.420;2022-10-17T16:55:59;22.30;99.90
11256;HTU21D;5685;52.384;13.420;2022-10-17T16:59:01;22.30;99.90
11256;HTU21D;5685;52.384;13.420;2022-10-17T17:02:04;22.30;99.90
11256;HTU21D;5685;52.384;13.420;2022-10-17T17:05:07;22.30;99.90
11256;HTU21D;5685;52.384;13.420;2022-10-17T17:08:09;22.30;99.90
11256;HTU21D;5685;52.384;13.420;2022-10-17T17:11:14;22.30;99.90
11256;HTU21D;5685;52.384;13.420;2022-10-17T17:14:18;22.30;99.90
11256;HTU21D;5685;52.384;13.420;2022-10-17T17:17:20;22.30;99.90
11256;HTU21D;5685;52.384;13.420;2022-10-17T17:20:22;22.30;99.90
11256;HTU21D;5685;52.384;13.420;2022-10-17T17:23:24;22.30;99.90
11256;HTU21D;5685;52.384;13.420;2022-10-17T17:26:31;22.30;99.90
11256;HTU21D;5685;52.384;13.420;2022-10-17T17:29:35;22.30;99.90
11256;HTU21D;5685;52.384;13.420;2022-10-17T17:32:37;22.30;99.90
11256;HTU21D;5685;52.384;13.420;2022-10-17T17:35:39;22.40;99.90
11256;HTU21D;5685;52.384;13.420;2022-10-17T17:38:42;22.30;99.90
11256;HTU21D;5685;52.384;13.420;2022-10-17T17:41:46;22.40;99.90
11256;HTU21D;5685;52.384;13.420;2022-10-17T17:44:48;22.40;99.90
11256;HTU21D;5685;52.384;13.420;2022-10-17T17:47:51;22.40;99.90
11256;HTU21D;5685;52.384;13.420;2022-10-17T17:50:54;22.40;99.90
11256;HTU21D;5685;52.384;13.420;2022-10-17T17:53:57;22.40;99.90
11256;HTU21D;5685;52.384;13.420;2022-10-17T17:57:00;22.40;99.90
11256;HTU21D;5685;52.384;13.420;2022-10-17T18:00:05;22.40;99.90
11256;HTU21D;5685;52.384;13.420;2022-10-17T18:03:08;22.40;99.90
11256;HTU21D;5685;52.384;13.420;2022-10-17T18:06:11;22.40;99.90
11256;HTU21D;5685;52.384;13.420;2022-10-17T18:09:14;22.40;99.90
11256;HTU21D;5685;52.384;13.420;2022-10-17T18:12:18;22.40;99.90
11256;HTU21D;5685;52.384;13.420;2022-10-17T18:15:20;22.40;99.90
11256;HTU21D;5685;52.384;13.420;2022-10-17T18:18:22;22.40;99.90
11256;HTU21D;5685;52.384;13.420;2022-10-17T18:21:25;22.40;99.90
11256;HTU21D;5685;52.384;13.420;2022-10-17T18:24:27;22.40;99.90
11256;HTU21D;5685;52.384;13.420;2022-10-17T18:27:31;22.40;99.90
11256;HTU21D;5685;52.384;13.420;2022-10-17T18:30:35;22.40;99.90
11256;HTU21D;5685;52.384;13.420;2022-10-17T18:33:38;22.40;99.90
11256;HTU21D;5685;52.384;13.420;2022-10-17T18:36:40;22.40;99.90
11256;HTU21D;5685;52.384;13.420;2022-10-17T18:39:42;22.40;99.90
11256;HTU21D;5685;52.384;13.420;2022-10-17T18:42:49;22.40;99.90
11256;HTU21D;5685;52.384;13.420;2022-10-17T18:45:55;22.40;99.90
11256;HTU21D;5685;52.384;13.420;2022-10-17T18:48:57;22.40;99.90
11256;HTU21D;5685;52.384;13.420;2022-10-17T18:51:59;22.40;99.90
11256;HTU21D;5685;52.384;13.420;2022-10-17T18:55:02;22.40;99.90
11256;HTU21D;5685;52.384;13.420;2022-10-17T18:58:06;22.40;99.90
11256;HTU21D;5685;52.384;13.420;2022-10-17T19:01:13;22.50;99.90
11256;HTU21D;5685;52.384;13.420;2022-10-17T19:04:17;22.50;99.90
11256;HTU21D;5685;52.384;13.420;2022-10-17T19:07:19;22.50;99.90
11256;HTU21D;5685;52.384;13.420;2022-10-17T19:10:21;22.50;99.90
11256;HTU21D;5685;52.384;13.420;2022-10-17T19:13:26;22.50;99.90
11256;HTU21D;5685;52.384;13.420;2022-10-17T19:16:30;22.50;99.90
11256;HTU21D;5685;52.384;13.420;2022-10-17T19:19:34;22.50;99.90